createdAt,value
2023-06-04T00:01:30.231Z,21.98
2023-06-04T00:04:01.942Z,21.94
2023-06-04T00:06:30.118Z,21.93
2023-06-04T00:08:58.117Z,21.90
2023-06-04T00:11:27.802Z,21.88
2023-06-04T00:13:55.918Z,21.87
2023-06-04T00:16:23.937Z,21.86
2023-06-04T00:18:52.127Z,21.83
2023-06-04T00:21:21.477Z,21.80
2023-06-04T00:23:49.529Z,21.80
2023-06-04T00:26:17.554Z,21.77
2023-06-04T00:28:48.541Z,21.73
2023-06-04T00:31:17.009Z,21.69
2023-06-04T00:33:45.079Z,21.66
2023-06-04T00:36:13.311Z,21.65
2023-06-04T00:38:42.694Z,21.64
2023-06-04T00:41:10.616Z,21.63
2023-06-04T00:43:38.632Z,21.67
2023-06-04T00:46:08.103Z,21.65
2023-06-04T00:48:38.037Z,21.65
2023-06-04T00:51:06.419Z,21.64
2023-06-04T00:53:34.522Z,21.67
2023-06-04T00:56:06.821Z,21.68
2023-06-04T00:58:36.219Z,21.70
2023-06-04T01:01:05.355Z,21.68
2023-06-04T01:03:34.109Z,21.66
2023-06-04T01:06:04.677Z,21.64
2023-06-04T01:08:32.670Z,21.64
2023-06-04T01:11:00.690Z,21.60
2023-06-04T01:13:30.666Z,21.58
2023-06-04T01:16:00.919Z,21.56
2023-06-04T01:18:30.145Z,21.54
2023-06-04T01:21:00.133Z,21.53
2023-06-04T01:23:34.907Z,21.54
2023-06-04T01:26:04.846Z,21.55
2023-06-04T01:28:35.341Z,21.57
2023-06-04T01:31:03.950Z,21.58
2023-06-04T01:33:32.196Z,21.55
2023-06-04T01:36:01.092Z,21.55
2023-06-04T01:38:29.210Z,21.55
2023-06-04T01:41:02.010Z,21.55
2023-06-04T01:43:30.643Z,21.53
2023-06-04T01:46:00.230Z,21.52
2023-06-04T01:48:28.302Z,21.49
2023-06-04T01:50:56.281Z,21.47
2023-06-04T01:53:24.202Z,21.46
2023-06-04T01:55:52.305Z,21.47
2023-06-04T01:58:23.947Z,21.43
2023-06-04T02:00:54.092Z,21.43
2023-06-04T02:03:24.204Z,21.41
2023-06-04T02:05:52.291Z,21.39
2023-06-04T02:08:21.024Z,21.38
2023-06-04T02:10:49.109Z,21.35
2023-06-04T02:13:17.409Z,21.33
2023-06-04T02:15:45.395Z,21.30
2023-06-04T02:18:17.534Z,21.26
2023-06-04T02:20:47.358Z,21.21
2023-06-04T02:23:16.118Z,21.16
2023-06-04T02:25:45.651Z,21.12
2023-06-04T02:28:13.743Z,21.07
2023-06-04T02:30:41.784Z,20.94
2023-06-04T02:33:11.222Z,20.86
2023-06-04T02:35:39.557Z,20.79
2023-06-04T02:38:08.923Z,20.73
2023-06-04T02:40:36.917Z,20.69
2023-06-04T02:43:04.885Z,20.65
2023-06-04T02:45:32.993Z,20.61
2023-06-04T02:48:01.121Z,20.59
2023-06-04T02:50:29.186Z,20.55
2023-06-04T02:52:57.150Z,20.51
2023-06-04T02:55:26.660Z,20.46
2023-06-04T02:57:54.651Z,20.40
2023-06-04T03:00:22.659Z,20.35
2023-06-04T03:02:50.868Z,20.30
2023-06-04T03:05:19.804Z,20.25
2023-06-04T03:07:48.226Z,20.18
2023-06-04T03:10:17.349Z,20.16
2023-06-04T03:12:46.783Z,20.14
2023-06-04T03:15:14.823Z,20.14
2023-06-04T03:17:42.982Z,20.16
2023-06-04T03:20:11.576Z,20.18
2023-06-04T03:22:39.855Z,20.17
2023-06-04T03:25:08.524Z,20.15
2023-06-04T03:27:36.880Z,20.12
2023-06-04T03:30:09.668Z,20.07
2023-06-04T03:32:48.769Z,20.03
2023-06-04T03:35:17.431Z,19.98
2023-06-04T03:37:45.490Z,19.87
2023-06-04T03:40:14.514Z,19.83
2023-06-04T03:42:45.418Z,19.79
2023-06-04T03:45:16.176Z,19.72
2023-06-04T03:47:44.326Z,19.65
2023-06-04T03:50:12.996Z,19.58
2023-06-04T03:52:41.037Z,19.45
2023-06-04T03:55:12.298Z,19.34
2023-06-04T03:57:41.158Z,19.27
2023-06-04T04:00:13.542Z,19.21
2023-06-04T04:02:43.409Z,19.15
2023-06-04T04:05:19.689Z,19.10
2023-06-04T04:07:49.728Z,19.03
2023-06-04T04:10:21.637Z,18.99
2023-06-04T04:12:50.248Z,18.96
2023-06-04T04:15:20.494Z,18.93
2023-06-04T04:17:50.337Z,18.91
2023-06-04T04:20:19.285Z,18.93
2023-06-04T04:22:58.187Z,18.90
2023-06-04T04:25:27.732Z,18.89
2023-06-04T04:27:57.552Z,18.89
2023-06-04T04:30:27.182Z,18.88
2023-06-04T04:32:57.632Z,18.86
2023-06-04T04:35:33.787Z,18.86
2023-06-04T04:38:05.136Z,18.87
2023-06-04T04:40:37.931Z,18.90
2023-06-04T04:43:07.831Z,18.93
2023-06-04T04:45:37.136Z,18.98
2023-06-04T04:48:08.668Z,18.98
2023-06-04T04:50:37.071Z,19.05
2023-06-04T04:53:06.356Z,19.09
2023-06-04T04:55:36.414Z,19.13
2023-06-04T04:58:04.829Z,19.16
2023-06-04T05:00:33.448Z,19.17
2023-06-04T05:03:02.888Z,19.18
2023-06-04T05:05:32.594Z,19.16
2023-06-04T05:08:01.385Z,19.16
2023-06-04T05:10:37.134Z,19.16
2023-06-04T05:13:07.444Z,19.17
2023-06-04T05:15:53.825Z,19.18
2023-06-04T05:18:30.083Z,19.20
2023-06-04T05:21:03.985Z,19.18
2023-06-04T05:23:38.343Z,19.20
2023-06-04T05:26:07.562Z,19.20
2023-06-04T05:28:35.662Z,19.22
2023-06-04T05:31:05.766Z,19.24
2023-06-04T05:33:36.420Z,19.30
2023-06-04T05:36:10.601Z,19.38
2023-06-04T05:38:44.897Z,19.49
2023-06-04T05:41:15.618Z,19.58
2023-06-04T05:43:45.717Z,19.66
2023-06-04T05:46:17.024Z,19.78
2023-06-04T05:48:46.170Z,19.86
2023-06-04T05:51:16.644Z,19.87
2023-06-04T05:53:45.352Z,19.92
2023-06-04T05:56:13.344Z,19.99
2023-06-04T05:58:41.404Z,20.05
2023-06-04T06:01:10.299Z,20.14
2023-06-04T06:03:38.930Z,20.20
2023-06-04T06:06:07.304Z,20.27
2023-06-04T06:08:36.772Z,20.34
2023-06-04T06:11:08.416Z,20.39
2023-06-04T06:13:38.275Z,20.47
2023-06-04T06:16:06.772Z,20.52
2023-06-04T06:18:34.984Z,20.59
2023-06-04T06:21:02.956Z,20.67
2023-06-04T06:23:31.274Z,20.72
2023-06-04T06:26:02.895Z,20.73
2023-06-04T06:28:33.428Z,20.81
2023-06-04T06:31:02.175Z,20.88
2023-06-04T06:33:30.184Z,20.96
2023-06-04T06:35:58.269Z,21.04
2023-06-04T06:38:26.582Z,21.12
2023-06-04T06:40:54.559Z,21.13
2023-06-04T06:43:23.955Z,21.18
2023-06-04T06:45:51.989Z,21.26
2023-06-04T06:48:19.990Z,21.31
2023-06-04T06:50:47.951Z,21.36
2023-06-04T06:53:15.935Z,21.40
2023-06-04T06:55:43.923Z,21.50
2023-06-04T06:58:11.850Z,21.57
2023-06-04T07:00:41.382Z,21.64
2023-06-04T07:03:09.856Z,21.70
2023-06-04T07:05:37.817Z,21.74
2023-06-04T07:08:06.523Z,21.81
2023-06-04T07:10:34.473Z,21.92
2023-06-04T07:13:02.477Z,21.97
2023-06-04T07:15:30.533Z,22.04
2023-06-04T07:17:59.933Z,22.08
2023-06-04T07:20:28.021Z,22.15
2023-06-04T07:22:56.080Z,22.22
2023-06-04T07:25:24.908Z,22.30
2023-06-04T07:27:52.925Z,22.34
2023-06-04T07:30:21.021Z,22.40
2023-06-04T07:32:49.830Z,22.46
2023-06-04T07:35:19.325Z,22.48
2023-06-04T07:37:48.943Z,22.52
2023-06-04T07:40:17.014Z,22.56
2023-06-04T07:42:45.084Z,22.60
2023-06-04T07:45:13.132Z,22.67
2023-06-04T07:47:41.398Z,22.76
2023-06-04T07:50:10.328Z,22.84
2023-06-04T07:52:39.703Z,22.92
2023-06-04T07:55:09.516Z,22.99
2023-06-04T07:57:38.490Z,23.10
2023-06-04T08:00:09.425Z,23.14
2023-06-04T08:02:40.185Z,23.21
2023-06-04T08:05:08.929Z,23.27
2023-06-04T08:07:36.941Z,23.35
2023-06-04T08:10:07.583Z,23.43
2023-06-04T08:12:35.731Z,23.54
2023-06-04T08:15:03.721Z,23.60
2023-06-04T08:17:31.742Z,23.68
2023-06-04T08:19:59.805Z,23.74
2023-06-04T08:22:28.574Z,23.81
2023-06-04T08:24:56.598Z,23.84
2023-06-04T08:27:26.079Z,23.91
2023-06-04T08:29:54.211Z,24.05
2023-06-04T08:32:22.192Z,24.17
2023-06-04T08:34:50.214Z,24.27
2023-06-04T08:37:18.670Z,24.32
2023-06-04T08:39:46.727Z,24.40
2023-06-04T08:42:21.056Z,24.44
2023-06-04T08:44:52.759Z,24.55
2023-06-04T08:47:21.637Z,24.65
2023-06-04T08:49:51.663Z,24.76
2023-06-04T08:52:22.652Z,24.84
2023-06-04T08:54:51.954Z,24.89
2023-06-04T08:57:20.556Z,24.94
2023-06-04T08:59:50.156Z,25.01
2023-06-04T09:02:18.135Z,25.05
2023-06-04T09:04:46.353Z,25.08
2023-06-04T09:07:15.492Z,25.11
2023-06-04T09:09:45.240Z,25.17
2023-06-04T09:12:14.597Z,25.24
2023-06-04T09:14:42.534Z,25.35
2023-06-04T09:17:11.894Z,25.42
2023-06-04T09:19:39.931Z,25.53
2023-06-04T09:22:08.021Z,25.60
2023-06-04T09:24:42.640Z,25.67
2023-06-04T09:27:14.733Z,25.72
2023-06-04T09:29:43.033Z,25.79
2023-06-04T09:32:12.439Z,25.83
2023-06-04T09:34:46.209Z,25.89
2023-06-04T09:37:16.378Z,25.92
2023-06-04T09:39:44.388Z,25.98
2023-06-04T09:42:12.371Z,26.02
2023-06-04T09:44:45.237Z,26.10
2023-06-04T09:47:14.630Z,26.15
2023-06-04T09:49:43.493Z,26.21
2023-06-04T09:52:11.606Z,26.28
2023-06-04T09:54:39.792Z,26.39
2023-06-04T09:57:08.373Z,26.47
2023-06-04T09:59:38.934Z,26.52
2023-06-04T10:02:06.998Z,26.66
2023-06-04T10:04:37.686Z,26.79
2023-06-04T10:07:06.339Z,26.86
2023-06-04T10:09:34.610Z,26.99
2023-06-04T10:12:03.331Z,27.08
2023-06-04T10:14:34.339Z,27.15
2023-06-04T10:17:02.460Z,27.25
2023-06-04T10:19:30.518Z,27.39
2023-06-04T10:21:59.999Z,27.57
2023-06-04T10:24:27.995Z,27.70
2023-06-04T10:26:56.502Z,27.81
2023-06-04T10:29:24.487Z,27.94
2023-06-04T10:31:56.475Z,28.05
2023-06-04T10:34:24.844Z,28.18
2023-06-04T10:36:52.863Z,28.23
2023-06-04T10:39:29.310Z,28.18
2023-06-04T10:42:01.725Z,28.30
2023-06-04T10:44:29.948Z,28.46
2023-06-04T10:46:58.989Z,28.63
2023-06-04T10:49:30.165Z,28.74
2023-06-04T10:51:58.521Z,28.87
2023-06-04T10:54:27.918Z,29.04
2023-06-04T10:56:55.994Z,29.15
2023-06-04T10:59:25.471Z,29.33
2023-06-04T11:01:53.789Z,29.53
2023-06-04T11:04:23.463Z,29.73
2023-06-04T11:07:03.021Z,29.87
2023-06-04T11:09:34.500Z,29.95
2023-06-04T11:12:02.934Z,29.99
2023-06-04T11:14:30.978Z,29.88
2023-06-04T11:16:58.956Z,29.90
2023-06-04T11:19:26.986Z,30.09
2023-06-04T11:21:57.074Z,30.30
2023-06-04T11:24:25.163Z,30.30
2023-06-04T11:27:07.792Z,30.24
2023-06-04T11:29:38.941Z,30.22
2023-06-04T11:32:07.688Z,30.30
2023-06-04T11:34:35.731Z,30.47
2023-06-04T11:37:10.462Z,30.68
2023-06-04T11:39:40.611Z,30.55
2023-06-04T11:42:10.192Z,30.64
2023-06-04T11:44:38.220Z,30.80
2023-06-04T11:47:08.180Z,30.99
2023-06-04T11:49:36.269Z,31.20
2023-06-04T11:52:04.514Z,31.38
2023-06-04T11:54:34.002Z,31.61
2023-06-04T11:57:02.169Z,31.75
2023-06-04T11:59:31.639Z,31.82
2023-06-04T12:02:01.313Z,31.99
2023-06-04T12:04:31.879Z,32.12
2023-06-04T12:07:01.433Z,32.35
2023-06-04T12:09:32.322Z,32.57
2023-06-04T12:12:00.512Z,32.67
2023-06-04T12:14:29.495Z,32.85
2023-06-04T12:16:59.391Z,33.06
2023-06-04T12:19:28.075Z,33.31
2023-06-04T12:22:03.829Z,33.52
2023-06-04T12:24:32.283Z,33.67
2023-06-04T12:27:03.808Z,33.74
2023-06-04T12:29:33.074Z,33.79
2023-06-04T12:32:06.195Z,33.85
2023-06-04T12:34:34.390Z,33.84
2023-06-04T12:37:02.448Z,33.92
2023-06-04T12:39:30.810Z,34.03
2023-06-04T12:41:58.774Z,34.15
2023-06-04T12:44:26.945Z,34.33
2023-06-04T12:46:55.071Z,34.43
2023-06-04T12:49:24.682Z,34.55
2023-06-04T12:51:52.760Z,34.55
2023-06-04T12:54:20.982Z,34.59
2023-06-04T12:56:48.973Z,34.70
2023-06-04T12:59:17.088Z,34.86
2023-06-04T13:01:45.193Z,35.10
2023-06-04T13:04:13.803Z,35.31
2023-06-04T13:06:43.149Z,35.45
2023-06-04T13:09:11.170Z,35.56
2023-06-04T13:11:39.987Z,35.59
2023-06-04T13:14:08.666Z,35.74
2023-06-04T13:16:36.964Z,35.91
2023-06-04T13:19:05.097Z,36.02
2023-06-04T13:21:33.193Z,36.08
2023-06-04T13:24:02.608Z,36.23
2023-06-04T13:26:31.532Z,36.43
2023-06-04T13:28:59.633Z,36.53
2023-06-04T13:31:27.738Z,36.54
2023-06-04T13:33:55.796Z,36.60
2023-06-04T13:36:24.332Z,36.75
2023-06-04T13:38:53.833Z,36.81
2023-06-04T13:41:23.397Z,36.87
2023-06-04T13:43:51.318Z,36.90
2023-06-04T13:46:19.360Z,36.92
2023-06-04T13:48:47.350Z,36.96
2023-06-04T13:51:15.420Z,37.04
2023-06-04T13:53:43.497Z,37.10
2023-06-04T13:56:11.503Z,37.15
2023-06-04T13:58:40.894Z,37.27
2023-06-04T14:01:09.284Z,37.29
2023-06-04T14:03:37.609Z,37.38
2023-06-04T14:06:05.782Z,37.49
2023-06-04T14:08:34.014Z,37.65
2023-06-04T14:11:02.022Z,37.80
2023-06-04T14:13:30.331Z,37.94
2023-06-04T14:15:59.867Z,37.97
2023-06-04T14:18:27.930Z,38.02
2023-06-04T14:20:56.001Z,38.06
2023-06-04T14:23:24.062Z,38.10
2023-06-04T14:25:52.192Z,38.10
2023-06-04T14:28:22.011Z,38.20
2023-06-04T14:30:50.176Z,38.26
2023-06-04T14:33:19.528Z,38.32
2023-06-04T14:35:48.343Z,38.33
2023-06-04T14:38:16.573Z,38.44
2023-06-04T14:40:45.325Z,38.51
2023-06-04T14:43:14.478Z,38.48
2023-06-04T14:45:42.941Z,38.42
2023-06-04T14:48:15.506Z,38.27
2023-06-04T14:50:45.651Z,38.14
2023-06-04T14:53:13.739Z,38.14
2023-06-04T14:55:42.240Z,38.32
2023-06-04T14:58:10.201Z,38.46
2023-06-04T15:00:38.163Z,38.62
2023-06-04T15:03:06.451Z,38.67
2023-06-04T15:05:34.492Z,38.78
2023-06-04T15:08:04.204Z,38.91
2023-06-04T15:10:38.558Z,38.91
2023-06-04T15:13:10.301Z,39.00
2023-06-04T15:15:38.331Z,39.11
2023-06-04T15:18:07.613Z,39.19
2023-06-04T15:20:38.640Z,39.26
2023-06-04T15:23:08.058Z,39.23
2023-06-04T15:25:36.105Z,39.27
2023-06-04T15:28:04.114Z,39.29
2023-06-04T15:30:32.123Z,39.39
2023-06-04T15:33:01.767Z,39.58
2023-06-04T15:35:29.939Z,39.72
2023-06-04T15:37:57.925Z,39.78
2023-06-04T15:40:27.353Z,39.76
2023-06-04T15:42:55.318Z,39.67
2023-06-04T15:45:25.665Z,39.51
2023-06-04T15:47:53.921Z,39.41
2023-06-04T15:50:22.154Z,39.24
2023-06-04T15:52:50.273Z,39.20
2023-06-04T15:55:18.365Z,39.22
2023-06-04T15:57:47.905Z,39.15
2023-06-04T16:00:16.326Z,39.14
2023-06-04T16:02:44.761Z,39.21
2023-06-04T16:05:12.836Z,39.29
2023-06-04T16:07:40.885Z,39.40
2023-06-04T16:10:09.829Z,39.42
2023-06-04T16:12:37.824Z,39.36
2023-06-04T16:15:08.769Z,39.39
2023-06-04T16:17:36.847Z,39.32
2023-06-04T16:20:05.245Z,39.20
2023-06-04T16:22:33.261Z,39.17
2023-06-04T16:25:01.327Z,39.19
2023-06-04T16:27:29.364Z,39.21
2023-06-04T16:29:57.297Z,39.12
2023-06-04T16:32:26.661Z,39.09
2023-06-04T16:34:55.859Z,38.99
2023-06-04T16:37:24.052Z,38.95
2023-06-04T16:39:52.000Z,38.97
2023-06-04T16:42:19.990Z,38.98
2023-06-04T16:44:50.090Z,38.98
2023-06-04T16:47:18.506Z,38.83
2023-06-04T16:49:47.884Z,38.70
2023-06-04T16:52:16.242Z,38.50
2023-06-04T16:54:44.373Z,38.32
2023-06-04T16:57:12.445Z,38.14
2023-06-04T16:59:42.985Z,38.00
2023-06-04T17:02:11.091Z,37.87
2023-06-04T17:04:39.492Z,37.78
2023-06-04T17:07:09.024Z,37.68
2023-06-04T17:09:37.308Z,37.56
2023-06-04T17:12:05.577Z,37.40
2023-06-04T17:14:33.634Z,37.01
2023-06-04T17:17:01.659Z,36.68
2023-06-04T17:19:32.793Z,36.46
2023-06-04T17:22:01.131Z,36.27
2023-06-04T17:24:30.514Z,36.21
2023-06-04T17:26:58.650Z,36.19
2023-06-04T17:29:26.674Z,36.18
2023-06-04T17:31:54.730Z,35.99
2023-06-04T17:34:23.021Z,35.91
2023-06-04T17:36:51.026Z,35.87
2023-06-04T17:39:19.038Z,35.79
2023-06-04T17:41:51.396Z,35.62
2023-06-04T17:44:19.665Z,35.48
2023-06-04T17:46:47.934Z,35.29
2023-06-04T17:49:16.330Z,34.72
2023-06-04T17:51:44.401Z,34.23
2023-06-04T17:54:12.440Z,33.74
2023-06-04T17:56:40.642Z,33.35
2023-06-04T17:59:10.128Z,32.99
2023-06-04T18:01:38.520Z,32.50
2023-06-04T18:04:06.934Z,32.10
2023-06-04T18:06:35.012Z,31.82
2023-06-04T18:09:03.096Z,31.53
2023-06-04T18:11:31.344Z,31.32
2023-06-04T18:14:00.468Z,31.10
2023-06-04T18:16:29.987Z,30.94
2023-06-04T18:18:58.017Z,30.99
2023-06-04T18:21:26.063Z,31.00
2023-06-04T18:23:54.509Z,30.95
2023-06-04T18:26:22.558Z,30.93
2023-06-04T18:28:50.527Z,30.95
2023-06-04T18:31:18.532Z,30.93
2023-06-04T18:33:54.350Z,30.88
2023-06-04T18:36:22.461Z,30.82
2023-06-04T18:38:50.440Z,30.76
2023-06-04T18:41:18.698Z,30.72
2023-06-04T18:43:46.618Z,30.72
2023-06-04T18:46:14.702Z,30.61
2023-06-04T18:48:42.787Z,30.51
2023-06-04T18:51:14.424Z,30.43
2023-06-04T18:53:42.480Z,30.36
2023-06-04T18:56:10.496Z,30.24
2023-06-04T18:58:38.600Z,30.17
2023-06-04T19:01:07.109Z,30.07
2023-06-04T19:03:35.388Z,29.96
2023-06-04T19:06:03.381Z,29.81
2023-06-04T19:08:32.873Z,29.69
2023-06-04T19:11:00.987Z,29.54
2023-06-04T19:13:28.959Z,29.38
2023-06-04T19:15:56.985Z,29.26
2023-06-04T19:18:25.063Z,29.12
2023-06-04T19:20:53.097Z,28.97
2023-06-04T19:23:21.179Z,28.80
2023-06-04T19:25:50.748Z,28.63
2023-06-04T19:28:19.013Z,28.49
2023-06-04T19:30:47.071Z,28.39
2023-06-04T19:33:15.186Z,28.28
2023-06-04T19:35:43.247Z,28.16
2023-06-04T19:38:11.244Z,28.05
2023-06-04T19:40:39.354Z,27.89
2023-06-04T19:43:08.762Z,27.69
2023-06-04T19:45:36.757Z,27.52
2023-06-04T19:48:05.089Z,27.36
2023-06-04T19:50:33.279Z,27.21
2023-06-04T19:53:01.371Z,27.11
2023-06-04T19:55:29.390Z,27.01
2023-06-04T19:57:59.069Z,26.92
2023-06-04T20:00:28.478Z,26.83
2023-06-04T20:02:56.596Z,26.73
2023-06-04T20:05:24.710Z,26.63
2023-06-04T20:07:52.888Z,26.54
2023-06-04T20:10:20.883Z,26.43
2023-06-04T20:12:48.923Z,26.29
2023-06-04T20:15:17.222Z,26.13
2023-06-04T20:17:46.737Z,26.01
2023-06-04T20:20:14.829Z,25.91
2023-06-04T20:22:42.863Z,25.82
2023-06-04T20:25:10.942Z,25.72
2023-06-04T20:27:39.027Z,25.59
2023-06-04T20:30:08.475Z,25.48
2023-06-04T20:32:36.510Z,25.33
2023-06-04T20:35:06.691Z,25.20
2023-06-04T20:37:36.613Z,25.12
2023-06-04T20:40:06.363Z,25.02
2023-06-04T20:42:34.446Z,24.93
2023-06-04T20:45:02.436Z,24.83
2023-06-04T20:47:30.454Z,24.73
2023-06-04T20:49:58.503Z,24.61
2023-06-04T20:52:27.879Z,24.45
2023-06-04T20:54:56.010Z,24.36
2023-06-04T20:57:24.003Z,24.25
2023-06-04T20:59:51.939Z,24.14
2023-06-04T21:02:19.971Z,24.05
2023-06-04T21:04:47.944Z,23.97
2023-06-04T21:07:16.291Z,23.88
2023-06-04T21:09:45.731Z,23.82
2023-06-04T21:12:13.779Z,23.77
2023-06-04T21:14:42.014Z,23.72
2023-06-04T21:17:09.998Z,23.68
2023-06-04T21:19:38.022Z,23.65
2023-06-04T21:22:06.388Z,23.62
2023-06-04T21:24:34.426Z,23.58
2023-06-04T21:27:03.892Z,23.51
2023-06-04T21:29:31.996Z,23.50
2023-06-04T21:32:00.075Z,23.47
2023-06-04T21:34:28.167Z,23.42
2023-06-04T21:36:56.192Z,23.38
2023-06-04T21:39:24.226Z,23.34
2023-06-04T21:41:52.281Z,23.28
2023-06-04T21:44:21.628Z,23.23
2023-06-04T21:46:50.206Z,23.18
2023-06-04T21:49:18.186Z,23.16
2023-06-04T21:51:46.187Z,23.16
2023-06-04T21:54:14.138Z,23.16
2023-06-04T21:56:42.185Z,23.18
2023-06-04T21:59:10.207Z,23.17
2023-06-04T22:01:39.797Z,23.16
2023-06-04T22:04:08.286Z,23.15
2023-06-04T22:06:36.310Z,23.17
2023-06-04T22:09:04.353Z,23.18
2023-06-04T22:11:32.513Z,23.22
2023-06-04T22:14:00.517Z,23.23
2023-06-04T22:16:28.594Z,23.21
2023-06-04T22:18:57.918Z,23.17
2023-06-04T22:21:26.062Z,23.12
2023-06-04T22:23:54.540Z,23.12
2023-06-04T22:26:36.888Z,23.16
2023-06-04T22:29:06.400Z,23.17
2023-06-04T22:31:34.475Z,23.18
2023-06-04T22:34:04.207Z,23.15
2023-06-04T22:36:32.243Z,23.16
2023-06-04T22:39:00.216Z,23.16
2023-06-04T22:41:28.622Z,23.15
2023-06-04T22:43:56.617Z,23.16
2023-06-04T22:46:24.642Z,23.12
2023-06-04T22:48:54.626Z,23.08
2023-06-04T22:51:24.649Z,23.07
2023-06-04T22:53:53.352Z,23.09
2023-06-04T22:56:22.078Z,23.08
2023-06-04T22:58:50.096Z,23.06
2023-06-04T23:01:18.181Z,23.03
2023-06-04T23:03:46.554Z,23.01
2023-06-04T23:06:14.642Z,23.01
2023-06-04T23:08:44.080Z,22.98
2023-06-04T23:11:13.859Z,23.00
2023-06-04T23:13:41.877Z,22.98
2023-06-04T23:16:10.901Z,23.01
2023-06-04T23:18:39.048Z,23.03
2023-06-04T23:21:07.239Z,23.06
2023-06-04T23:23:35.434Z,23.06
2023-06-04T23:26:04.888Z,23.09
2023-06-04T23:28:33.009Z,23.12
2023-06-04T23:31:01.052Z,23.15
2023-06-04T23:33:29.073Z,23.19
2023-06-04T23:35:57.031Z,23.18
2023-06-04T23:38:25.060Z,23.14
2023-06-04T23:40:53.092Z,23.09
2023-06-04T23:43:22.484Z,23.02
2023-06-04T23:45:50.501Z,22.99
2023-06-04T23:48:18.516Z,22.98
2023-06-04T23:50:46.522Z,23.00
2023-06-04T23:53:14.521Z,22.98
2023-06-04T23:55:42.662Z,22.98
2023-06-04T23:58:10.634Z,22.96
